createdAt,value
2022-09-02T00:04:52.250Z,101235.28
2022-09-02T00:09:56.997Z,101230.13
2022-09-02T00:15:01.399Z,101227.72
2022-09-02T00:20:05.493Z,101231.53
2022-09-02T00:25:10.194Z,101240.97
2022-09-02T00:30:14.633Z,101237.50
2022-09-02T00:35:17.660Z,101230.53
2022-09-02T00:40:23.433Z,101235.81
2022-09-02T00:45:26.715Z,101231.59
2022-09-02T00:50:31.101Z,101239.53
2022-09-02T00:55:37.392Z,101253.50
2022-09-02T01:05:47.307Z,101243.31
2022-09-02T01:10:53.004Z,101252.00
2022-09-02T01:15:58.591Z,101241.56
2022-09-02T01:21:02.130Z,101244.25
2022-09-02T01:26:07.506Z,101240.69
2022-09-02T01:31:11.205Z,101241.66
2022-09-02T01:36:14.610Z,101241.47
2022-09-02T01:41:19.045Z,101255.47
2022-09-02T01:46:22.021Z,101241.66
2022-09-02T01:51:25.092Z,101233.75
2022-09-02T01:56:29.437Z,101247.59
2022-09-02T02:01:32.490Z,101242.56
2022-09-02T02:06:35.467Z,101244.41
2022-09-02T02:11:40.445Z,101242.72
2022-09-02T02:16:43.495Z,101244.50
2022-09-02T02:21:46.576Z,101247.22
2022-09-02T02:26:51.151Z,101244.63
2022-09-02T02:31:54.710Z,101237.47
2022-09-02T02:36:57.917Z,101238.34
2022-09-02T02:42:02.265Z,101231.44
2022-09-02T02:47:05.836Z,101241.34
2022-09-02T02:52:08.888Z,101250.16
2022-09-02T02:57:13.284Z,101239.81
2022-09-02T03:02:17.520Z,101240.66
2022-09-02T03:07:20.865Z,101239.72
2022-09-02T03:12:25.485Z,101236.31
2022-09-02T03:17:28.488Z,101246.81
2022-09-02T03:22:31.429Z,101256.53
2022-09-02T03:27:35.825Z,101254.88
2022-09-02T03:32:39.208Z,101262.69
2022-09-02T03:37:42.272Z,101258.31
2022-09-02T03:42:46.771Z,101274.94
2022-09-02T03:47:54.447Z,101267.16
2022-09-02T03:52:57.575Z,101279.38
2022-09-02T03:58:04.396Z,101278.56
2022-09-02T04:03:10.956Z,101282.88
2022-09-02T04:08:14.271Z,101293.41
2022-09-02T04:13:19.002Z,101289.94
2022-09-02T04:18:22.377Z,101292.53
2022-09-02T04:23:25.670Z,101299.53
2022-09-02T04:28:30.126Z,101300.41
2022-09-02T04:33:33.099Z,101302.19
2022-09-02T04:38:36.507Z,101303.03
2022-09-02T04:43:41.053Z,101307.38
2022-09-02T04:48:44.554Z,101308.25
2022-09-02T04:53:48.330Z,101310.72
2022-09-02T04:58:53.497Z,101307.19
2022-09-02T05:03:56.938Z,101304.66
2022-09-02T05:09:01.912Z,101309.75
2022-09-02T05:14:07.573Z,101312.34
2022-09-02T05:19:13.665Z,101307.09
2022-09-02T05:24:17.937Z,101310.53
2022-09-02T05:29:23.840Z,101306.16
2022-09-02T05:34:27.001Z,101310.41
2022-09-02T05:39:31.281Z,101317.31
2022-09-02T05:44:37.220Z,101314.69
2022-09-02T05:49:40.263Z,101319.84
2022-09-02T05:54:43.306Z,101319.72
2022-09-02T05:59:49.211Z,101316.22
2022-09-02T06:04:53.582Z,101305.63
2022-09-02T06:09:56.580Z,101304.69
2022-09-02T06:15:01.093Z,101309.81
2022-09-02T06:20:04.643Z,101315.00
2022-09-02T06:25:07.905Z,101321.81
2022-09-02T06:30:14.408Z,101325.19
2022-09-02T06:35:17.732Z,101310.34
2022-09-02T06:40:20.988Z,101311.84
2022-09-02T06:45:25.402Z,101324.91
2022-09-02T06:50:28.377Z,101320.50
2022-09-02T06:55:31.595Z,101321.16
2022-09-02T07:00:37.161Z,101328.06
2022-09-02T07:05:40.328Z,101325.41
2022-09-02T07:10:43.649Z,101331.34
2022-09-02T07:15:48.060Z,101324.28
2022-09-02T07:20:51.222Z,101325.00
2022-09-02T07:25:55.531Z,101323.09
2022-09-02T07:31:00.267Z,101327.41
2022-09-02T07:36:05.115Z,101323.78
2022-09-02T07:41:14.230Z,101327.09
2022-09-02T07:46:19.307Z,101333.13
2022-09-02T07:51:23.121Z,101326.00
2022-09-02T07:56:26.294Z,101325.91
2022-09-02T08:01:30.998Z,101325.00
2022-09-02T08:06:35.340Z,101322.13
2022-09-02T08:11:39.922Z,101320.97
2022-09-02T08:16:44.685Z,101311.41
2022-09-02T08:21:47.774Z,101306.94
2022-09-02T08:26:50.752Z,101312.81
2022-09-02T08:31:55.177Z,101311.81
2022-09-02T08:36:58.898Z,101308.19
2022-09-02T08:42:06.356Z,101310.63
2022-09-02T08:47:14.342Z,101303.56
2022-09-02T08:52:23.811Z,101303.28
2022-09-02T08:57:27.725Z,101304.72
2022-09-02T09:02:36.565Z,101299.00
2022-09-02T09:07:42.759Z,101293.34
2022-09-02T09:12:52.966Z,101286.88
2022-09-02T09:17:59.496Z,101278.38
2022-09-02T09:23:03.514Z,101271.84
2022-09-02T09:28:06.634Z,101273.75
2022-09-02T09:33:16.074Z,101269.66
2022-09-02T09:38:30.139Z,101264.44
2022-09-02T09:43:34.373Z,101258.16
2022-09-02T09:48:49.734Z,101255.56
2022-09-02T09:53:53.046Z,101237.31
2022-09-02T09:58:56.195Z,101240.53
2022-09-02T10:04:03.810Z,101234.25
2022-09-02T10:09:25.695Z,101229.19
2022-09-02T10:14:34.349Z,101238.66
2022-09-02T10:19:41.033Z,101225.78
2022-09-02T10:24:51.796Z,101222.84
2022-09-02T10:29:59.169Z,101217.69
2022-09-02T10:35:11.197Z,101209.31
2022-09-02T10:40:16.031Z,101219.56
2022-09-02T10:45:24.718Z,101211.16
2022-09-02T10:50:36.065Z,101207.63
2022-09-02T10:55:45.978Z,101215.38
2022-09-02T11:00:52.002Z,101200.06
2022-09-02T11:05:58.105Z,101195.84
2022-09-02T11:11:05.189Z,101189.91
2022-09-02T11:16:15.496Z,101191.38
2022-09-02T11:21:31.898Z,101192.66
2022-09-02T11:26:38.411Z,101192.97
2022-09-02T11:31:44.151Z,101185.59
2022-09-02T11:36:49.818Z,101175.56
2022-09-02T11:42:00.853Z,101168.09
2022-09-02T11:47:10.209Z,101166.44
2022-09-02T11:52:34.184Z,101155.66
2022-09-02T11:57:41.563Z,101150.00
2022-09-02T12:02:46.282Z,101155.75
2022-09-02T12:07:50.705Z,101150.16
2022-09-02T12:13:08.162Z,101139.88
2022-09-02T12:18:13.790Z,101138.91
2022-09-02T12:23:31.974Z,101128.06
2022-09-02T12:28:36.564Z,101127.22
2022-09-02T12:33:40.846Z,101118.06
2022-09-02T12:38:44.073Z,101097.91
2022-09-02T12:43:53.912Z,101077.88
2022-09-02T12:49:01.056Z,101074.53
2022-09-02T12:54:05.441Z,101090.50
2022-09-02T12:59:09.780Z,101092.97
2022-09-02T13:04:26.906Z,101104.50
2022-09-02T13:09:48.374Z,101107.75
2022-09-02T13:15:01.261Z,101117.69
2022-09-02T13:20:20.358Z,101121.88
2022-09-02T13:25:36.311Z,101114.25
2022-09-02T13:30:54.129Z,101110.66
2022-09-02T13:35:59.204Z,101104.16
2022-09-02T13:41:02.478Z,101089.13
2022-09-02T13:46:06.921Z,101085.28
2022-09-02T13:51:13.039Z,101080.31
2022-09-02T13:56:17.622Z,101081.19
2022-09-02T14:01:23.963Z,101074.22
2022-09-02T14:06:28.972Z,101074.72
2022-09-02T14:11:36.107Z,101076.34
2022-09-02T14:16:40.541Z,101089.53
2022-09-02T14:21:47.868Z,101083.75
2022-09-02T14:26:52.005Z,101083.25
2022-09-02T14:32:11.259Z,101086.09
2022-09-02T14:37:20.035Z,101082.25
2022-09-02T14:42:23.082Z,101079.50
2022-09-02T14:47:27.855Z,101076.03
2022-09-02T14:52:33.438Z,101089.31
2022-09-02T14:57:39.121Z,101085.28
2022-09-02T15:02:44.429Z,101085.16
2022-09-02T15:07:47.440Z,101082.78
2022-09-02T15:12:51.416Z,101082.78
2022-09-02T15:17:56.543Z,101082.69
2022-09-02T15:22:59.697Z,101078.13
2022-09-02T15:28:03.508Z,101076.97
2022-09-02T15:33:08.581Z,101078.84
2022-09-02T15:38:19.849Z,101061.03
2022-09-02T15:43:23.438Z,101057.41
2022-09-02T15:48:27.857Z,101061.59
2022-09-02T15:53:30.906Z,101073.28
2022-09-02T15:58:33.926Z,101066.75
2022-09-02T16:03:38.334Z,101070.03
2022-09-02T16:08:41.344Z,101075.72
2022-09-02T16:13:44.377Z,101068.16
2022-09-02T16:18:52.525Z,101070.03
2022-09-02T16:23:56.153Z,101075.28
2022-09-02T16:29:00.197Z,101073.50
2022-09-02T16:34:05.545Z,101065.50
2022-09-02T16:39:10.615Z,101066.03
2022-09-02T16:44:16.132Z,101073.50
2022-09-02T16:49:21.083Z,101084.75
2022-09-02T16:54:30.715Z,101089.69
2022-09-02T16:59:34.904Z,101081.66
2022-09-02T17:04:39.295Z,101084.84
2022-09-02T17:09:42.328Z,101086.81
2022-09-02T17:14:45.400Z,101089.97
2022-09-02T17:19:50.165Z,101084.25
2022-09-02T17:24:53.837Z,101095.16
2022-09-02T17:29:57.532Z,101100.75
2022-09-02T17:35:02.703Z,101096.81
2022-09-02T17:40:06.861Z,101098.06
2022-09-02T17:45:10.315Z,101108.44
2022-09-02T17:50:17.951Z,101101.34
2022-09-02T17:55:21.222Z,101109.41
2022-09-02T18:00:26.718Z,101104.72
2022-09-02T18:05:32.583Z,101111.94
2022-09-02T18:10:37.652Z,101109.66
2022-09-02T18:15:46.334Z,101115.00
2022-09-02T18:20:54.292Z,101114.59
2022-09-02T18:26:03.344Z,101121.75
2022-09-02T18:31:13.322Z,101123.84
2022-09-02T18:36:26.868Z,101121.84
2022-09-02T18:41:40.176Z,101127.16
2022-09-02T18:46:46.803Z,101122.28
2022-09-02T18:51:53.901Z,101128.63
2022-09-02T18:56:58.953Z,101132.94
2022-09-02T19:02:05.780Z,101137.72
2022-09-02T19:07:29.129Z,101137.06
2022-09-02T19:12:33.767Z,101129.16
2022-09-02T19:17:37.158Z,101133.66
2022-09-02T19:22:43.404Z,101127.31
2022-09-02T19:27:47.145Z,101125.75
2022-09-02T19:32:51.206Z,101133.78
2022-09-02T19:37:55.864Z,101145.88
2022-09-02T19:42:58.936Z,101149.03
2022-09-02T19:48:06.998Z,101149.81
2022-09-02T19:53:17.307Z,101150.00
2022-09-02T19:58:20.401Z,101151.09
2022-09-02T20:03:23.550Z,101153.06
2022-09-02T20:08:31.138Z,101147.69
2022-09-02T20:13:40.148Z,101152.91
2022-09-02T20:18:48.432Z,101156.81
2022-09-02T20:23:54.028Z,101145.47
2022-09-02T20:29:07.899Z,101157.69
2022-09-02T20:34:17.945Z,101144.44
2022-09-02T20:39:36.477Z,101149.06
2022-09-02T20:44:50.205Z,101152.44
2022-09-02T20:49:59.691Z,101151.09
2022-09-02T20:55:08.025Z,101169.69
2022-09-02T21:00:12.249Z,101172.53
2022-09-02T21:05:22.248Z,101173.41
2022-09-02T21:10:30.046Z,101175.25
2022-09-02T21:15:34.309Z,101179.75
2022-09-02T21:20:43.432Z,101172.81
2022-09-02T21:25:52.272Z,101173.78
2022-09-02T21:30:59.176Z,101176.63
2022-09-02T21:36:03.205Z,101177.59
2022-09-02T21:41:19.103Z,101173.41
2022-09-02T21:46:27.911Z,101171.63
2022-09-02T21:51:37.220Z,101171.44
2022-09-02T21:56:50.407Z,101171.66
2022-09-02T22:01:57.413Z,101164.25
2022-09-02T22:07:07.109Z,101168.59
2022-09-02T22:12:14.695Z,101164.28
2022-09-02T22:17:24.855Z,101174.47
2022-09-02T22:22:30.048Z,101174.59
2022-09-02T22:27:35.964Z,101174.63
2022-09-02T22:32:40.613Z,101173.88
2022-09-02T22:37:48.252Z,101165.28
2022-09-02T22:42:54.593Z,101176.72
2022-09-02T22:48:18.884Z,101174.38
2022-09-02T22:53:21.903Z,101173.50
2022-09-02T22:58:35.521Z,101178.88
2022-09-02T23:03:41.001Z,101175.03
2022-09-02T23:08:46.092Z,101184.19
2022-09-02T23:13:58.026Z,101180.91
2022-09-02T23:19:07.661Z,101180.38
2022-09-02T23:24:16.114Z,101181.44
2022-09-02T23:29:26.594Z,101198.94
2022-09-02T23:34:37.297Z,101192.84
2022-09-02T23:39:49.164Z,101189.38
2022-09-02T23:45:02.154Z,101185.16
2022-09-02T23:50:14.079Z,101184.44
2022-09-02T23:55:22.234Z,101179.56
